Albuquerque, NM (87111)

10:52 AM MST on December 10, 2016 (GMT -0700)
| | Change Station

Elev -9999 ft 0.00 °N, 0.00 °E | Updated 11 minutes ago

Clear
Clear
56 °F
Feels Like 56 °F
N
10
Wind Variable Wind from West
Gusts 15 mph

Today
High -- | Low -- °F
--% Chance of Precip.
Yesterday
High -- | Low -- °F
Precip. -- in
Pressure 30.29 in
Visibility 10.0 miles
Clouds Scattered Clouds 20000 ft
Dew Point 20 °F
Humidity 25%
Rainfall --
Snow Depth Not available.
7:03 AM 4:54 PM
Waxing Gibbous, 85% visible
METAR KABQ 101652Z 00000KT 10SM SCT200 02/M03 A3027 RMK AO2 SLP255 HAZY T00221033
Pressure 30.29 in
Visibility 10.0 miles
Clouds Scattered Clouds 20000 ft
Dew Point 20 °F
Humidity 25%
Rainfall --
Snow Depth Not available.
7:03 AM 4:54 PM
Waxing Gibbous, 85% visible
METAR KABQ 101652Z 00000KT 10SM SCT200 02/M03 A3027 RMK AO2 SLP255 HAZY T00221033

10-Day Weather Forecast

Almanac

Astronomy

Dec. 10, 2016 Rise Set
Actual Time
Civil Twilight
Nautical Twilight
Astronomical Twilight
Moon
Length of Visible Light
Length of Day
Tomorrow will be .
, % of the Moon is Illuminated

Today's Extremes

State Highs State Lows

Community

WunderPhotos

Upload Photos

1,956,591 photos uploaded!

WunderBlog® & News

Nearby

Air Quality

  Air Quality AQ Index Pollutant
Not available.

Snow Depth

Station Depth Elevation

Earthquake Activity

City Distance Mag. Time & Date
Minimum magnitude displayed is 2.5.

Coastal Water Temperatures

Place Temperature

Stations

Nearby Weather Stations

Station Location Temp. Windchill Dew Point Humidity Wind Precip. Elev Updated Type
                   

Watches & Warnings

There are currently no watches in effect.